sensor_id;sensor_type;location;lat;lon;timestamp;P1;durP1;ratioP1;P2;durP2;ratioP2
20179;SDS011;10249;48.900;9.090;2024-02-23T00:01:57;8.40;;;8.10;;
20179;SDS011;10249;48.900;9.090;2024-02-23T00:04:25;8.37;;;8.07;;
20179;SDS011;10249;48.900;9.090;2024-02-23T00:06:52;7.90;;;7.70;;
20179;SDS011;10249;48.900;9.090;2024-02-23T00:09:20;7.90;;;7.70;;
20179;SDS011;10249;48.900;9.090;2024-02-23T00:11:47;8.30;;;8.00;;
20179;SDS011;10249;48.900;9.090;2024-02-23T00:14:15;8.40;;;8.10;;
20179;SDS011;10249;48.900;9.090;2024-02-23T00:16:43;8.60;;;8.30;;
20179;SDS011;10249;48.900;9.090;2024-02-23T00:19:10;7.90;;;7.70;;
20179;SDS011;10249;48.900;9.090;2024-02-23T00:21:38;8.40;;;8.10;;
20179;SDS011;10249;48.900;9.090;2024-02-23T00:24:05;8.50;;;8.20;;
20179;SDS011;10249;48.900;9.090;2024-02-23T00:26:34;8.53;;;8.23;;
20179;SDS011;10249;48.900;9.090;2024-02-23T00:29:02;9.37;;;9.00;;
20179;SDS011;10249;48.900;9.090;2024-02-23T00:31:29;9.20;;;8.90;;
20179;SDS011;10249;48.900;9.090;2024-02-23T00:33:57;9.50;;;9.20;;
20179;SDS011;10249;48.900;9.090;2024-02-23T00:36:24;9.50;;;9.20;;
20179;SDS011;10249;48.900;9.090;2024-02-23T00:38:51;9.27;;;8.97;;
20179;SDS011;10249;48.900;9.090;2024-02-23T00:41:18;9.40;;;9.10;;
20179;SDS011;10249;48.900;9.090;2024-02-23T00:43:46;9.70;;;9.40;;
20179;SDS011;10249;48.900;9.090;2024-02-23T00:46:13;9.80;;;9.50;;
20179;SDS011;10249;48.900;9.090;2024-02-23T00:48:40;9.40;;;9.10;;
20179;SDS011;10249;48.900;9.090;2024-02-23T00:51:08;9.43;;;9.13;;
20179;SDS011;10249;48.900;9.090;2024-02-23T00:53:35;9.70;;;9.40;;
20179;SDS011;10249;48.900;9.090;2024-02-23T00:56:03;9.70;;;9.30;;
20179;SDS011;10249;48.900;9.090;2024-02-23T00:58:31;9.40;;;9.10;;
20179;SDS011;10249;48.900;9.090;2024-02-23T01:01:00;9.30;;;9.00;;
20179;SDS011;10249;48.900;9.090;2024-02-23T01:03:27;9.27;;;8.97;;
20179;SDS011;10249;48.900;9.090;2024-02-23T01:05:54;9.60;;;9.30;;
20179;SDS011;10249;48.900;9.090;2024-02-23T01:08:21;9.30;;;9.00;;
20179;SDS011;10249;48.900;9.090;2024-02-23T01:10:48;9.60;;;9.30;;
20179;SDS011;10249;48.900;9.090;2024-02-23T01:13:15;9.60;;;9.30;;
20179;SDS011;10249;48.900;9.090;2024-02-23T01:15:42;9.40;;;9.10;;
20179;SDS011;10249;48.900;9.090;2024-02-23T01:18:11;9.37;;;8.97;;
20179;SDS011;10249;48.900;9.090;2024-02-23T01:20:39;9.50;;;9.20;;
20179;SDS011;10249;48.900;9.090;2024-02-23T01:23:06;9.40;;;9.10;;
20179;SDS011;10249;48.900;9.090;2024-02-23T01:25:33;9.80;;;9.00;;
20179;SDS011;10249;48.900;9.090;2024-02-23T01:28:01;9.30;;;9.00;;
20179;SDS011;10249;48.900;9.090;2024-02-23T01:30:28;9.20;;;8.90;;
20179;SDS011;10249;48.900;9.090;2024-02-23T01:32:55;9.00;;;8.70;;
20179;SDS011;10249;48.900;9.090;2024-02-23T01:35:23;9.00;;;8.70;;
20179;SDS011;10249;48.900;9.090;2024-02-23T01:37:51;9.00;;;8.70;;
20179;SDS011;10249;48.900;9.090;2024-02-23T01:40:18;8.60;;;8.30;;
20179;SDS011;10249;48.900;9.090;2024-02-23T01:42:45;8.80;;;8.50;;
20179;SDS011;10249;48.900;9.090;2024-02-23T01:45:12;8.37;;;8.07;;
20179;SDS011;10249;48.900;9.090;2024-02-23T01:47:39;8.40;;;8.10;;
20179;SDS011;10249;48.900;9.090;2024-02-23T01:50:07;8.40;;;8.10;;
20179;SDS011;10249;48.900;9.090;2024-02-23T01:52:35;8.40;;;8.10;;
20179;SDS011;10249;48.900;9.090;2024-02-23T01:55:03;8.40;;;8.10;;
20179;SDS011;10249;48.900;9.090;2024-02-23T01:57:31;7.90;;;7.70;;
20179;SDS011;10249;48.900;9.090;2024-02-23T01:59:59;8.20;;;7.90;;
20179;SDS011;10249;48.900;9.090;2024-02-23T02:02:26;7.60;;;7.40;;
20179;SDS011;10249;48.900;9.090;2024-02-23T02:04:53;7.43;;;7.23;;
20179;SDS011;10249;48.900;9.090;2024-02-23T02:07:20;7.50;;;7.30;;
20179;SDS011;10249;48.900;9.090;2024-02-23T02:09:51;7.40;;;7.20;;
20179;SDS011;10249;48.900;9.090;2024-02-23T02:12:26;7.17;;;6.97;;
20179;SDS011;10249;48.900;9.090;2024-02-23T02:14:53;7.20;;;7.00;;
20179;SDS011;10249;48.900;9.090;2024-02-23T02:17:20;7.00;;;6.80;;
20179;SDS011;10249;48.900;9.090;2024-02-23T02:19:48;7.00;;;6.80;;
20179;SDS011;10249;48.900;9.090;2024-02-23T02:22:15;7.17;;;6.97;;
20179;SDS011;10249;48.900;9.090;2024-02-23T02:24:42;7.27;;;7.07;;
20179;SDS011;10249;48.900;9.090;2024-02-23T02:27:12;7.20;;;7.00;;
20179;SDS011;10249;48.900;9.090;2024-02-23T02:29:39;7.20;;;7.00;;
20179;SDS011;10249;48.900;9.090;2024-02-23T02:32:07;7.00;;;6.80;;
20179;SDS011;10249;48.900;9.090;2024-02-23T02:34:34;7.00;;;6.80;;
20179;SDS011;10249;48.900;9.090;2024-02-23T02:37:01;6.80;;;6.60;;
20179;SDS011;10249;48.900;9.090;2024-02-23T02:39:28;6.80;;;6.60;;
20179;SDS011;10249;48.900;9.090;2024-02-23T02:41:56;6.70;;;6.50;;
20179;SDS011;10249;48.900;9.090;2024-02-23T02:44:25;6.83;;;6.63;;
20179;SDS011;10249;48.900;9.090;2024-02-23T02:46:55;6.70;;;6.50;;
20179;SDS011;10249;48.900;9.090;2024-02-23T02:49:22;6.60;;;6.40;;
20179;SDS011;10249;48.900;9.090;2024-02-23T02:51:50;6.90;;;6.70;;
20179;SDS011;10249;48.900;9.090;2024-02-23T02:54:17;6.90;;;6.70;;
20179;SDS011;10249;48.900;9.090;2024-02-23T02:56:44;7.00;;;6.80;;
20179;SDS011;10249;48.900;9.090;2024-02-23T02:59:11;7.03;;;6.83;;
20179;SDS011;10249;48.900;9.090;2024-02-23T03:01:40;7.07;;;6.87;;
20179;SDS011;10249;48.900;9.090;2024-02-23T03:04:07;6.90;;;6.70;;
20179;SDS011;10249;48.900;9.090;2024-02-23T03:06:35;6.80;;;6.60;;
20179;SDS011;10249;48.900;9.090;2024-02-23T03:09:02;6.80;;;6.60;;
20179;SDS011;10249;48.900;9.090;2024-02-23T03:11:30;7.60;;;7.40;;
20179;SDS011;10249;48.900;9.090;2024-02-23T03:13:57;7.30;;;7.10;;
20179;SDS011;10249;48.900;9.090;2024-02-23T03:16:24;7.40;;;7.20;;
20179;SDS011;10249;48.900;9.090;2024-02-23T03:18:53;7.70;;;7.50;;
20179;SDS011;10249;48.900;9.090;2024-02-23T03:21:20;7.43;;;7.23;;
20179;SDS011;10249;48.900;9.090;2024-02-23T03:23:47;8.40;;;8.10;;
20179;SDS011;10249;48.900;9.090;2024-02-23T03:26:15;8.70;;;8.40;;
20179;SDS011;10249;48.900;9.090;2024-02-23T03:28:42;8.93;;;8.63;;
20179;SDS011;10249;48.900;9.090;2024-02-23T03:31:09;8.70;;;8.40;;
20179;SDS011;10249;48.900;9.090;2024-02-23T03:33:36;8.60;;;8.30;;
20179;SDS011;10249;48.900;9.090;2024-02-23T03:36:05;8.80;;;8.50;;
20179;SDS011;10249;48.900;9.090;2024-02-23T03:38:32;9.33;;;9.03;;
20179;SDS011;10249;48.900;9.090;2024-02-23T03:40:59;9.50;;;9.20;;
20179;SDS011;10249;48.900;9.090;2024-02-23T03:43:27;9.50;;;9.20;;
20179;SDS011;10249;48.900;9.090;2024-02-23T03:45:53;8.93;;;8.63;;
20179;SDS011;10249;48.900;9.090;2024-02-23T03:48:20;9.23;;;8.93;;
20179;SDS011;10249;48.900;9.090;2024-02-23T03:50:47;9.43;;;9.13;;
20179;SDS011;10249;48.900;9.090;2024-02-23T03:53:15;9.10;;;8.80;;
20179;SDS011;10249;48.900;9.090;2024-02-23T03:55:42;9.90;;;9.33;;
20179;SDS011;10249;48.900;9.090;2024-02-23T03:58:09;9.70;;;9.40;;
20179;SDS011;10249;48.900;9.090;2024-02-23T04:00:37;9.40;;;9.10;;
20179;SDS011;10249;48.900;9.090;2024-02-23T04:03:04;9.53;;;9.23;;
20179;SDS011;10249;48.900;9.090;2024-02-23T04:05:31;9.90;;;9.60;;
20179;SDS011;10249;48.900;9.090;2024-02-23T04:07:58;9.70;;;9.40;;
20179;SDS011;10249;48.900;9.090;2024-02-23T04:10:26;9.80;;;9.50;;
20179;SDS011;10249;48.900;9.090;2024-02-23T04:12:53;9.90;;;9.60;;
20179;SDS011;10249;48.900;9.090;2024-02-23T04:15:21;10.20;;;9.80;;
20179;SDS011;10249;48.900;9.090;2024-02-23T04:17:48;10.40;;;10.00;;
20179;SDS011;10249;48.900;9.090;2024-02-23T04:20:15;10.20;;;9.80;;
20179;SDS011;10249;48.900;9.090;2024-02-23T04:22:42;11.00;;;10.40;;
20179;SDS011;10249;48.900;9.090;2024-02-23T04:25:09;10.40;;;10.00;;
20179;SDS011;10249;48.900;9.090;2024-02-23T04:27:37;10.30;;;9.90;;
20179;SDS011;10249;48.900;9.090;2024-02-23T04:30:05;10.10;;;9.70;;
20179;SDS011;10249;48.900;9.090;2024-02-23T04:32:33;10.17;;;9.77;;
20179;SDS011;10249;48.900;9.090;2024-02-23T04:35:00;10.40;;;10.00;;
20179;SDS011;10249;48.900;9.090;2024-02-23T04:37:27;11.10;;;10.70;;
20179;SDS011;10249;48.900;9.090;2024-02-23T04:39:54;10.60;;;10.20;;
20179;SDS011;10249;48.900;9.090;2024-02-23T04:42:21;10.70;;;10.30;;
20179;SDS011;10249;48.900;9.090;2024-02-23T04:44:50;10.80;;;10.40;;
20179;SDS011;10249;48.900;9.090;2024-02-23T04:47:19;10.63;;;10.23;;
20179;SDS011;10249;48.900;9.090;2024-02-23T04:49:46;10.70;;;10.30;;
20179;SDS011;10249;48.900;9.090;2024-02-23T04:52:14;10.80;;;10.40;;
20179;SDS011;10249;48.900;9.090;2024-02-23T04:54:41;10.20;;;9.80;;
20179;SDS011;10249;48.900;9.090;2024-02-23T04:57:09;10.53;;;10.13;;
20179;SDS011;10249;48.900;9.090;2024-02-23T04:59:36;11.10;;;10.70;;
20179;SDS011;10249;48.900;9.090;2024-02-23T05:02:04;10.80;;;10.40;;
20179;SDS011;10249;48.900;9.090;2024-02-23T05:04:31;11.20;;;10.80;;
20179;SDS011;10249;48.900;9.090;2024-02-23T05:06:58;11.20;;;10.80;;
20179;SDS011;10249;48.900;9.090;2024-02-23T05:09:26;11.43;;;11.03;;
20179;SDS011;10249;48.900;9.090;2024-02-23T05:11:54;11.00;;;10.60;;
20179;SDS011;10249;48.900;9.090;2024-02-23T05:14:21;11.40;;;11.00;;
20179;SDS011;10249;48.900;9.090;2024-02-23T05:16:48;11.00;;;10.60;;
20179;SDS011;10249;48.900;9.090;2024-02-23T05:19:16;11.00;;;10.60;;
20179;SDS011;10249;48.900;9.090;2024-02-23T05:21:43;11.00;;;10.60;;
20179;SDS011;10249;48.900;9.090;2024-02-23T05:24:11;11.00;;;10.60;;
20179;SDS011;10249;48.900;9.090;2024-02-23T05:26:38;10.70;;;10.30;;
20179;SDS011;10249;48.900;9.090;2024-02-23T05:29:05;10.90;;;10.50;;
20179;SDS011;10249;48.900;9.090;2024-02-23T05:31:45;10.80;;;10.40;;
20179;SDS011;10249;48.900;9.090;2024-02-23T05:34:13;11.00;;;10.60;;
20179;SDS011;10249;48.900;9.090;2024-02-23T05:36:41;11.07;;;10.67;;
20179;SDS011;10249;48.900;9.090;2024-02-23T05:39:08;11.27;;;10.87;;
20179;SDS011;10249;48.900;9.090;2024-02-23T05:41:36;11.10;;;10.70;;
20179;SDS011;10249;48.900;9.090;2024-02-23T05:44:03;11.47;;;11.07;;
20179;SDS011;10249;48.900;9.090;2024-02-23T05:46:31;11.10;;;10.70;;
20179;SDS011;10249;48.900;9.090;2024-02-23T05:49:00;10.90;;;10.50;;
20179;SDS011;10249;48.900;9.090;2024-02-23T05:51:29;11.87;;;11.37;;
20179;SDS011;10249;48.900;9.090;2024-02-23T05:53:57;11.20;;;10.80;;
20179;SDS011;10249;48.900;9.090;2024-02-23T05:56:25;11.30;;;10.90;;
20179;SDS011;10249;48.900;9.090;2024-02-23T05:58:52;10.87;;;10.47;;
20179;SDS011;10249;48.900;9.090;2024-02-23T06:01:20;10.90;;;10.50;;
20179;SDS011;10249;48.900;9.090;2024-02-23T06:03:47;10.80;;;10.40;;
20179;SDS011;10249;48.900;9.090;2024-02-23T06:06:14;10.87;;;10.47;;
20179;SDS011;10249;48.900;9.090;2024-02-23T06:08:41;10.90;;;10.50;;
20179;SDS011;10249;48.900;9.090;2024-02-23T06:11:10;11.27;;;10.87;;
20179;SDS011;10249;48.900;9.090;2024-02-23T06:13:37;11.00;;;10.60;;
20179;SDS011;10249;48.900;9.090;2024-02-23T06:16:05;10.50;;;10.10;;
20179;SDS011;10249;48.900;9.090;2024-02-23T06:18:36;10.70;;;10.30;;
20179;SDS011;10249;48.900;9.090;2024-02-23T06:21:10;10.70;;;10.30;;
20179;SDS011;10249;48.900;9.090;2024-02-23T06:23:38;10.80;;;10.40;;
20179;SDS011;10249;48.900;9.090;2024-02-23T06:26:06;10.90;;;10.50;;
20179;SDS011;10249;48.900;9.090;2024-02-23T06:28:34;10.30;;;9.90;;
20179;SDS011;10249;48.900;9.090;2024-02-23T06:31:03;10.97;;;10.57;;
20179;SDS011;10249;48.900;9.090;2024-02-23T06:33:30;11.00;;;10.60;;
20179;SDS011;10249;48.900;9.090;2024-02-23T06:35:58;10.97;;;10.57;;
20179;SDS011;10249;48.900;9.090;2024-02-23T06:38:25;11.20;;;10.80;;
20179;SDS011;10249;48.900;9.090;2024-02-23T06:40:52;10.90;;;10.50;;
20179;SDS011;10249;48.900;9.090;2024-02-23T06:43:20;10.73;;;10.33;;
20179;SDS011;10249;48.900;9.090;2024-02-23T06:45:48;10.70;;;10.30;;
20179;SDS011;10249;48.900;9.090;2024-02-23T06:48:16;10.70;;;10.30;;
20179;SDS011;10249;48.900;9.090;2024-02-23T06:50:43;10.60;;;10.20;;
20179;SDS011;10249;48.900;9.090;2024-02-23T06:53:10;10.90;;;10.50;;
20179;SDS011;10249;48.900;9.090;2024-02-23T06:55:38;10.30;;;9.90;;
20179;SDS011;10249;48.900;9.090;2024-02-23T06:58:05;10.07;;;9.70;;
20179;SDS011;10249;48.900;9.090;2024-02-23T07:00:32;9.67;;;9.37;;
20179;SDS011;10249;48.900;9.090;2024-02-23T07:03:01;9.60;;;9.30;;
20179;SDS011;10249;48.900;9.090;2024-02-23T07:05:29;9.70;;;9.40;;
20179;SDS011;10249;48.900;9.090;2024-02-23T07:07:57;9.80;;;9.50;;
20179;SDS011;10249;48.900;9.090;2024-02-23T07:10:24;9.63;;;9.33;;
20179;SDS011;10249;48.900;9.090;2024-02-23T07:12:51;9.30;;;9.00;;
20179;SDS011;10249;48.900;9.090;2024-02-23T07:15:19;9.53;;;9.23;;
20179;SDS011;10249;48.900;9.090;2024-02-23T07:17:46;9.20;;;8.90;;
20179;SDS011;10249;48.900;9.090;2024-02-23T07:20:15;9.40;;;9.10;;
20179;SDS011;10249;48.900;9.090;2024-02-23T07:22:43;9.37;;;9.07;;
20179;SDS011;10249;48.900;9.090;2024-02-23T07:25:10;9.57;;;9.27;;
20179;SDS011;10249;48.900;9.090;2024-02-23T07:27:38;9.50;;;9.20;;
20179;SDS011;10249;48.900;9.090;2024-02-23T07:30:05;9.50;;;9.20;;
20179;SDS011;10249;48.900;9.090;2024-02-23T07:32:33;9.90;;;9.60;;
20179;SDS011;10249;48.900;9.090;2024-02-23T07:35:00;10.00;;;9.70;;
20179;SDS011;10249;48.900;9.090;2024-02-23T07:37:30;9.80;;;9.50;;
20179;SDS011;10249;48.900;9.090;2024-02-23T07:39:57;9.70;;;9.40;;
20179;SDS011;10249;48.900;9.090;2024-02-23T07:42:24;9.30;;;9.00;;
20179;SDS011;10249;48.900;9.090;2024-02-23T07:44:52;9.17;;;8.87;;
20179;SDS011;10249;48.900;9.090;2024-02-23T07:47:19;9.00;;;8.70;;
20179;SDS011;10249;48.900;9.090;2024-02-23T07:49:47;8.90;;;8.60;;
20179;SDS011;10249;48.900;9.090;2024-02-23T07:52:14;8.90;;;8.60;;
20179;SDS011;10249;48.900;9.090;2024-02-23T07:54:42;9.00;;;8.70;;
20179;SDS011;10249;48.900;9.090;2024-02-23T07:57:09;9.10;;;8.80;;
20179;SDS011;10249;48.900;9.090;2024-02-23T07:59:38;9.07;;;8.77;;
20179;SDS011;10249;48.900;9.090;2024-02-23T08:02:06;8.90;;;8.60;;
20179;SDS011;10249;48.900;9.090;2024-02-23T08:04:33;8.63;;;8.33;;
20179;SDS011;10249;48.900;9.090;2024-02-23T08:07:00;9.13;;;8.83;;
20179;SDS011;10249;48.900;9.090;2024-02-23T08:09:28;9.20;;;8.90;;
20179;SDS011;10249;48.900;9.090;2024-02-23T08:11:56;9.10;;;8.80;;
20179;SDS011;10249;48.900;9.090;2024-02-23T08:14:24;8.93;;;8.63;;
20179;SDS011;10249;48.900;9.090;2024-02-23T08:16:51;9.00;;;8.70;;
20179;SDS011;10249;48.900;9.090;2024-02-23T08:19:18;8.67;;;8.37;;
20179;SDS011;10249;48.900;9.090;2024-02-23T08:21:45;8.87;;;8.57;;
20179;SDS011;10249;48.900;9.090;2024-02-23T08:24:12;8.73;;;8.43;;
20179;SDS011;10249;48.900;9.090;2024-02-23T08:26:39;9.10;;;8.80;;
20179;SDS011;10249;48.900;9.090;2024-02-23T08:29:08;8.80;;;8.50;;
20179;SDS011;10249;48.900;9.090;2024-02-23T08:31:35;8.90;;;8.60;;
20179;SDS011;10249;48.900;9.090;2024-02-23T08:34:02;9.00;;;8.70;;
20179;SDS011;10249;48.900;9.090;2024-02-23T08:36:29;9.23;;;8.93;;
20179;SDS011;10249;48.900;9.090;2024-02-23T08:38:56;8.80;;;8.50;;
20179;SDS011;10249;48.900;9.090;2024-02-23T08:41:24;8.83;;;8.53;;
20179;SDS011;10249;48.900;9.090;2024-02-23T08:43:51;8.90;;;8.60;;
20179;SDS011;10249;48.900;9.090;2024-02-23T08:46:21;8.70;;;8.40;;
20179;SDS011;10249;48.900;9.090;2024-02-23T08:48:48;8.73;;;8.43;;
20179;SDS011;10249;48.900;9.090;2024-02-23T08:51:15;9.03;;;8.73;;
20179;SDS011;10249;48.900;9.090;2024-02-23T08:53:42;9.20;;;8.90;;
20179;SDS011;10249;48.900;9.090;2024-02-23T08:56:10;9.20;;;8.90;;
20179;SDS011;10249;48.900;9.090;2024-02-23T08:58:37;9.37;;;9.07;;
20179;SDS011;10249;48.900;9.090;2024-02-23T09:01:05;8.83;;;8.53;;
20179;SDS011;10249;48.900;9.090;2024-02-23T09:03:35;9.13;;;8.83;;
20179;SDS011;10249;48.900;9.090;2024-02-23T09:06:02;9.52;;;9.23;;
20179;SDS011;10249;48.900;9.090;2024-02-23T09:08:30;9.00;;;8.70;;
20179;SDS011;10249;48.900;9.090;2024-02-23T09:10:57;9.33;;;9.03;;
20179;SDS011;10249;48.900;9.090;2024-02-23T09:13:24;9.63;;;9.33;;
20179;SDS011;10249;48.900;9.090;2024-02-23T09:15:52;8.90;;;8.60;;
20179;SDS011;10249;48.900;9.090;2024-02-23T09:18:20;9.30;;;9.00;;
20179;SDS011;10249;48.900;9.090;2024-02-23T09:20:48;9.30;;;9.00;;
20179;SDS011;10249;48.900;9.090;2024-02-23T09:23:15;9.30;;;9.00;;
20179;SDS011;10249;48.900;9.090;2024-02-23T09:25:42;9.30;;;9.00;;
20179;SDS011;10249;48.900;9.090;2024-02-23T09:28:10;9.20;;;8.90;;
20179;SDS011;10249;48.900;9.090;2024-02-23T09:30:37;9.30;;;9.00;;
20179;SDS011;10249;48.900;9.090;2024-02-23T09:33:04;9.70;;;9.40;;
20179;SDS011;10249;48.900;9.090;2024-02-23T09:35:31;9.60;;;9.30;;
20179;SDS011;10249;48.900;9.090;2024-02-23T09:38:00;9.73;;;9.43;;
20179;SDS011;10249;48.900;9.090;2024-02-23T09:40:27;9.70;;;9.40;;
20179;SDS011;10249;48.900;9.090;2024-02-23T09:42:55;10.13;;;9.73;;
20179;SDS011;10249;48.900;9.090;2024-02-23T09:45:23;10.33;;;9.93;;
20179;SDS011;10249;48.900;9.090;2024-02-23T09:47:51;10.23;;;9.83;;
20179;SDS011;10249;48.900;9.090;2024-02-23T09:50:19;10.50;;;10.10;;
20179;SDS011;10249;48.900;9.090;2024-02-23T09:52:47;10.80;;;10.40;;
20179;SDS011;10249;48.900;9.090;2024-02-23T09:55:17;11.30;;;10.90;;
20179;SDS011;10249;48.900;9.090;2024-02-23T09:57:45;11.43;;;11.00;;
20179;SDS011;10249;48.900;9.090;2024-02-23T10:00:12;12.00;;;11.50;;
20179;SDS011;10249;48.900;9.090;2024-02-23T10:02:39;12.03;;;11.53;;
20179;SDS011;10249;48.900;9.090;2024-02-23T10:05:07;12.00;;;11.50;;
20179;SDS011;10249;48.900;9.090;2024-02-23T10:07:35;11.97;;;11.47;;
20179;SDS011;10249;48.900;9.090;2024-02-23T10:10:02;11.70;;;11.20;;
20179;SDS011;10249;48.900;9.090;2024-02-23T10:12:30;11.53;;;11.10;;
20179;SDS011;10249;48.900;9.090;2024-02-23T10:15:00;11.93;;;11.43;;
20179;SDS011;10249;48.900;9.090;2024-02-23T10:17:29;11.97;;;11.47;;
20179;SDS011;10249;48.900;9.090;2024-02-23T10:19:56;11.67;;;11.17;;
20179;SDS011;10249;48.900;9.090;2024-02-23T10:22:24;11.77;;;11.27;;
20179;SDS011;10249;48.900;9.090;2024-02-23T10:24:51;12.17;;;11.67;;
20179;SDS011;10249;48.900;9.090;2024-02-23T10:27:18;11.90;;;11.40;;
20179;SDS011;10249;48.900;9.090;2024-02-23T10:29:50;11.87;;;11.37;;
20179;SDS011;10249;48.900;9.090;2024-02-23T10:32:17;11.80;;;11.30;;
20179;SDS011;10249;48.900;9.090;2024-02-23T10:34:45;12.07;;;11.57;;
20179;SDS011;10249;48.900;9.090;2024-02-23T10:37:14;12.43;;;11.93;;
20179;SDS011;10249;48.900;9.090;2024-02-23T10:39:41;12.90;;;12.30;;
20179;SDS011;10249;48.900;9.090;2024-02-23T10:42:09;12.33;;;11.83;;
20179;SDS011;10249;48.900;9.090;2024-02-23T10:44:37;13.13;;;12.57;;
20179;SDS011;10249;48.900;9.090;2024-02-23T10:47:05;13.50;;;12.90;;
20179;SDS011;10249;48.900;9.090;2024-02-23T10:49:33;13.77;;;13.17;;
20179;SDS011;10249;48.900;9.090;2024-02-23T10:52:01;13.60;;;13.00;;
20179;SDS011;10249;48.900;9.090;2024-02-23T10:54:28;13.43;;;12.83;;
20179;SDS011;10249;48.900;9.090;2024-02-23T10:56:56;13.20;;;12.60;;
20179;SDS011;10249;48.900;9.090;2024-02-23T10:59:24;13.80;;;13.20;;
20179;SDS011;10249;48.900;9.090;2024-02-23T11:01:51;13.80;;;13.20;;
20179;SDS011;10249;48.900;9.090;2024-02-23T11:04:23;13.77;;;13.17;;
20179;SDS011;10249;48.900;9.090;2024-02-23T11:06:50;13.70;;;13.10;;
20179;SDS011;10249;48.900;9.090;2024-02-23T11:09:20;13.50;;;12.90;;
20179;SDS011;10249;48.900;9.090;2024-02-23T11:11:51;13.57;;;12.97;;
20179;SDS011;10249;48.900;9.090;2024-02-23T11:14:18;13.90;;;13.30;;
20179;SDS011;10249;48.900;9.090;2024-02-23T11:16:56;13.60;;;13.00;;
20179;SDS011;10249;48.900;9.090;2024-02-23T11:19:32;13.70;;;13.10;;
20179;SDS011;10249;48.900;9.090;2024-02-23T11:22:01;13.50;;;12.90;;
20179;SDS011;10249;48.900;9.090;2024-02-23T11:24:28;14.20;;;13.60;;
20179;SDS011;10249;48.900;9.090;2024-02-23T11:26:56;13.80;;;13.20;;
20179;SDS011;10249;48.900;9.090;2024-02-23T11:29:25;14.20;;;13.50;;
20179;SDS011;10249;48.900;9.090;2024-02-23T11:31:52;14.25;;;13.55;;
20179;SDS011;10249;48.900;9.090;2024-02-23T11:34:21;14.30;;;13.60;;
20179;SDS011;10249;48.900;9.090;2024-02-23T11:36:51;14.20;;;13.50;;
20179;SDS011;10249;48.900;9.090;2024-02-23T11:39:19;14.30;;;13.60;;
20179;SDS011;10249;48.900;9.090;2024-02-23T11:41:47;14.30;;;13.60;;
20179;SDS011;10249;48.900;9.090;2024-02-23T11:44:16;14.60;;;13.90;;
20179;SDS011;10249;48.900;9.090;2024-02-23T11:46:43;14.33;;;13.63;;
20179;SDS011;10249;48.900;9.090;2024-02-23T11:49:10;14.67;;;13.97;;
20179;SDS011;10249;48.900;9.090;2024-02-23T11:51:37;14.80;;;14.10;;
20179;SDS011;10249;48.900;9.090;2024-02-23T11:54:07;14.67;;;13.97;;
20179;SDS011;10249;48.900;9.090;2024-02-23T11:56:34;14.40;;;13.70;;
20179;SDS011;10249;48.900;9.090;2024-02-23T11:59:01;14.43;;;13.73;;
20179;SDS011;10249;48.900;9.090;2024-02-23T12:01:28;14.40;;;13.70;;
20179;SDS011;10249;48.900;9.090;2024-02-23T12:03:57;14.53;;;13.83;;
20179;SDS011;10249;48.900;9.090;2024-02-23T12:06:24;14.50;;;13.80;;
20179;SDS011;10249;48.900;9.090;2024-02-23T12:08:55;14.50;;;13.80;;
20179;SDS011;10249;48.900;9.090;2024-02-23T12:11:24;14.60;;;13.90;;
20179;SDS011;10249;48.900;9.090;2024-02-23T12:13:51;14.80;;;14.10;;
20179;SDS011;10249;48.900;9.090;2024-02-23T12:16:19;14.90;;;14.20;;
20179;SDS011;10249;48.900;9.090;2024-02-23T12:18:52;14.80;;;14.10;;
20179;SDS011;10249;48.900;9.090;2024-02-23T12:21:20;14.80;;;14.10;;
20179;SDS011;10249;48.900;9.090;2024-02-23T12:23:48;14.80;;;14.10;;
20179;SDS011;10249;48.900;9.090;2024-02-23T12:26:16;14.70;;;14.00;;
20179;SDS011;10249;48.900;9.090;2024-02-23T12:28:44;14.83;;;14.13;;
20179;SDS011;10249;48.900;9.090;2024-02-23T12:31:11;14.67;;;13.97;;
20179;SDS011;10249;48.900;9.090;2024-02-23T12:33:39;15.17;;;14.37;;
20179;SDS011;10249;48.900;9.090;2024-02-23T12:36:06;14.80;;;14.10;;
20179;SDS011;10249;48.900;9.090;2024-02-23T12:38:34;14.70;;;14.00;;
20179;SDS011;10249;48.900;9.090;2024-02-23T12:41:03;15.10;;;14.40;;
20179;SDS011;10249;48.900;9.090;2024-02-23T12:43:31;14.97;;;14.27;;
20179;SDS011;10249;48.900;9.090;2024-02-23T12:46:00;14.73;;;14.03;;
20179;SDS011;10249;48.900;9.090;2024-02-23T12:48:28;14.70;;;14.00;;
20179;SDS011;10249;48.900;9.090;2024-02-23T12:50:55;14.80;;;14.10;;
20179;SDS011;10249;48.900;9.090;2024-02-23T12:53:34;15.00;;;14.30;;
20179;SDS011;10249;48.900;9.090;2024-02-23T12:56:02;14.90;;;14.20;;
20179;SDS011;10249;48.900;9.090;2024-02-23T12:58:30;15.00;;;14.30;;
20179;SDS011;10249;48.900;9.090;2024-02-23T13:01:00;14.90;;;14.20;;
20179;SDS011;10249;48.900;9.090;2024-02-23T13:03:27;15.00;;;14.30;;
20179;SDS011;10249;48.900;9.090;2024-02-23T13:05:54;14.93;;;14.23;;
20179;SDS011;10249;48.900;9.090;2024-02-23T13:08:21;15.50;;;14.80;;
20179;SDS011;10249;48.900;9.090;2024-02-23T13:10:49;14.90;;;14.20;;
20179;SDS011;10249;48.900;9.090;2024-02-23T13:13:16;14.50;;;13.80;;
20179;SDS011;10249;48.900;9.090;2024-02-23T13:15:43;15.10;;;14.40;;
20179;SDS011;10249;48.900;9.090;2024-02-23T13:18:12;14.73;;;14.03;;
20179;SDS011;10249;48.900;9.090;2024-02-23T13:20:39;15.00;;;14.27;;
20179;SDS011;10249;48.900;9.090;2024-02-23T13:23:07;14.73;;;14.03;;
20179;SDS011;10249;48.900;9.090;2024-02-23T13:25:34;14.53;;;13.83;;
20179;SDS011;10249;48.900;9.090;2024-02-23T13:28:02;14.60;;;13.90;;
20179;SDS011;10249;48.900;9.090;2024-02-23T13:30:29;14.73;;;14.03;;
20179;SDS011;10249;48.900;9.090;2024-02-23T13:32:57;14.93;;;14.23;;
20179;SDS011;10249;48.900;9.090;2024-02-23T13:35:25;15.07;;;14.37;;
20179;SDS011;10249;48.900;9.090;2024-02-23T13:37:53;14.90;;;14.20;;
20179;SDS011;10249;48.900;9.090;2024-02-23T13:40:20;14.80;;;14.10;;
20179;SDS011;10249;48.900;9.090;2024-02-23T13:42:47;15.07;;;14.37;;
20179;SDS011;10249;48.900;9.090;2024-02-23T13:45:15;14.97;;;14.27;;
20179;SDS011;10249;48.900;9.090;2024-02-23T13:47:43;14.87;;;14.17;;
20179;SDS011;10249;48.900;9.090;2024-02-23T13:50:11;15.20;;;14.50;;
20179;SDS011;10249;48.900;9.090;2024-02-23T13:52:40;15.20;;;14.50;;
20179;SDS011;10249;48.900;9.090;2024-02-23T13:55:08;14.80;;;14.10;;
20179;SDS011;10249;48.900;9.090;2024-02-23T13:57:35;15.10;;;14.40;;
20179;SDS011;10249;48.900;9.090;2024-02-23T14:00:03;15.00;;;14.30;;
20179;SDS011;10249;48.900;9.090;2024-02-23T14:02:31;15.17;;;14.47;;
20179;SDS011;10249;48.900;9.090;2024-02-23T14:05:00;14.80;;;14.10;;
20179;SDS011;10249;48.900;9.090;2024-02-23T14:07:28;14.80;;;14.10;;
20179;SDS011;10249;48.900;9.090;2024-02-23T14:09:56;14.57;;;13.87;;
20179;SDS011;10249;48.900;9.090;2024-02-23T14:12:24;14.50;;;13.80;;
20179;SDS011;10249;48.900;9.090;2024-02-23T14:14:51;14.60;;;13.90;;
20179;SDS011;10249;48.900;9.090;2024-02-23T14:17:18;14.80;;;14.10;;
20179;SDS011;10249;48.900;9.090;2024-02-23T14:19:45;15.30;;;14.60;;
20179;SDS011;10249;48.900;9.090;2024-02-23T14:22:13;15.07;;;14.37;;
20179;SDS011;10249;48.900;9.090;2024-02-23T14:24:40;14.93;;;14.23;;
20179;SDS011;10249;48.900;9.090;2024-02-23T14:27:09;14.70;;;14.00;;
20179;SDS011;10249;48.900;9.090;2024-02-23T14:29:37;15.40;;;14.70;;
20179;SDS011;10249;48.900;9.090;2024-02-23T14:32:04;14.93;;;14.23;;
20179;SDS011;10249;48.900;9.090;2024-02-23T14:34:31;15.30;;;14.60;;
20179;SDS011;10249;48.900;9.090;2024-02-23T14:36:58;15.13;;;14.43;;